createdAt,value
2022-09-27T07:03:41.667Z,6.53
2022-09-27T07:08:50.642Z,5.00
2022-09-27T07:29:50.509Z,4.73
2022-09-27T07:34:44.147Z,3.83
2022-09-27T07:39:39.480Z,4.30
2022-09-27T07:44:33.579Z,4.20
2022-09-27T07:49:51.951Z,4.60
2022-09-27T08:10:12.514Z,5.70
2022-09-27T08:15:07.577Z,4.90
2022-09-27T08:20:04.376Z,5.37
2022-09-27T08:25:24.616Z,5.10
2022-09-27T08:30:35.214Z,4.80
2022-09-27T08:35:30.390Z,5.10
2022-09-27T08:40:31.627Z,5.07
2022-09-27T08:45:33.001Z,5.67
2022-09-27T08:50:29.929Z,5.10
2022-09-27T08:55:37.114Z,4.93
2022-09-27T09:00:34.786Z,5.40
2022-09-27T09:05:31.881Z,4.30
2022-09-27T09:10:58.621Z,4.17
2022-09-27T09:49:37.043Z,5.83
2022-09-27T09:54:35.250Z,7.47
2022-09-27T09:59:37.142Z,6.83
2022-09-27T10:04:35.172Z,8.03
2022-09-27T10:22:39.675Z,2.70
2022-09-27T10:27:47.518Z,2.30
2022-09-27T10:32:45.970Z,2.33
2022-09-27T10:38:25.290Z,2.17
2022-09-27T10:43:30.676Z,1.97
2022-09-27T10:48:37.865Z,2.40
2022-09-27T10:53:36.669Z,2.20
2022-09-27T10:58:39.477Z,2.10
2022-09-27T11:03:47.796Z,2.87
2022-09-27T11:08:43.533Z,3.03
2022-09-27T11:13:42.648Z,2.70
2022-09-27T11:18:49.095Z,3.20
2022-09-27T11:24:04.336Z,2.00
2022-09-27T11:29:05.155Z,3.80
2022-09-27T11:34:31.921Z,2.33
2022-09-27T11:39:41.426Z,2.00
2022-09-27T11:44:48.277Z,2.20
2022-09-27T11:50:14.246Z,1.93
2022-09-27T11:55:25.258Z,1.57
2022-09-27T12:00:22.506Z,1.60
2022-09-27T12:05:35.400Z,1.50
2022-09-27T12:10:34.717Z,2.10
2022-09-27T12:26:13.821Z,1.83
2022-09-27T12:31:29.010Z,2.00
2022-09-27T12:36:29.707Z,2.50
2022-09-27T12:41:28.567Z,2.70
2022-09-27T12:46:53.642Z,2.50
2022-09-27T12:51:52.743Z,2.50
2022-09-27T12:56:58.935Z,3.93
2022-09-27T13:02:14.805Z,2.60
2022-09-27T13:07:24.596Z,2.50
2022-09-27T13:12:23.127Z,2.60
2022-09-27T13:17:50.037Z,2.90
2022-09-27T13:23:59.339Z,2.70
2022-09-27T13:29:03.758Z,2.90
2022-09-27T13:34:04.737Z,3.00
2022-09-27T13:39:23.108Z,2.87
2022-09-27T13:44:57.057Z,3.07
2022-09-27T13:49:53.524Z,4.17
2022-09-27T13:55:02.400Z,5.93
2022-09-27T14:00:04.837Z,4.07
2022-09-27T14:05:19.316Z,3.03
2022-09-27T14:10:17.102Z,2.80
2022-09-27T14:15:22.106Z,2.40
2022-09-27T14:20:32.861Z,5.80
2022-09-27T14:25:27.012Z,4.10
2022-09-27T14:30:24.615Z,3.70
2022-09-27T14:36:13.656Z,6.20
2022-09-27T14:41:10.999Z,3.70
